sensor_id;sensor_type;location;lat;lon;timestamp;temperature;humidity
21807;DHT22;11065;50.786;7.840;2023-06-14T00:02:21;19.10;35.10
21807;DHT22;11065;50.786;7.840;2023-06-14T00:04:49;19.10;35.10
21807;DHT22;11065;50.786;7.840;2023-06-14T00:07:22;19.00;35.20
21807;DHT22;11065;50.786;7.840;2023-06-14T00:10:01;19.00;35.40
21807;DHT22;11065;50.786;7.840;2023-06-14T00:12:29;19.00;35.40
21807;DHT22;11065;50.786;7.840;2023-06-14T00:14:58;18.90;35.40
21807;DHT22;11065;50.786;7.840;2023-06-14T00:17:28;18.80;35.50
21807;DHT22;11065;50.786;7.840;2023-06-14T00:19:57;18.80;35.60
21807;DHT22;11065;50.786;7.840;2023-06-14T00:22:25;18.70;35.60
21807;DHT22;11065;50.786;7.840;2023-06-14T00:24:55;18.70;35.70
21807;DHT22;11065;50.786;7.840;2023-06-14T00:27:23;18.60;35.80
21807;DHT22;11065;50.786;7.840;2023-06-14T00:29:51;18.60;35.90
21807;DHT22;11065;50.786;7.840;2023-06-14T00:32:21;18.50;35.90
21807;DHT22;11065;50.786;7.840;2023-06-14T00:34:55;18.50;36.10
21807;DHT22;11065;50.786;7.840;2023-06-14T00:37:23;18.40;36.10
21807;DHT22;11065;50.786;7.840;2023-06-14T00:39:51;18.40;36.20
21807;DHT22;11065;50.786;7.840;2023-06-14T00:42:25;18.30;36.30
21807;DHT22;11065;50.786;7.840;2023-06-14T00:44:54;18.30;36.70
21807;DHT22;11065;50.786;7.840;2023-06-14T00:47:23;18.20;36.50
21807;DHT22;11065;50.786;7.840;2023-06-14T00:49:53;18.20;36.70
21807;DHT22;11065;50.786;7.840;2023-06-14T00:52:22;18.10;36.60
21807;DHT22;11065;50.786;7.840;2023-06-14T00:54:51;18.10;36.70
21807;DHT22;11065;50.786;7.840;2023-06-14T00:57:19;18.10;36.80
21807;DHT22;11065;50.786;7.840;2023-06-14T00:59:49;18.00;36.90
21807;DHT22;11065;50.786;7.840;2023-06-14T01:02:17;18.00;37.00
21807;DHT22;11065;50.786;7.840;2023-06-14T01:04:48;17.90;37.10
21807;DHT22;11065;50.786;7.840;2023-06-14T01:07:23;17.90;37.30
21807;DHT22;11065;50.786;7.840;2023-06-14T01:10:03;17.90;37.50
21807;DHT22;11065;50.786;7.840;2023-06-14T01:12:39;17.80;37.60
21807;DHT22;11065;50.786;7.840;2023-06-14T01:15:09;17.80;37.50
21807;DHT22;11065;50.786;7.840;2023-06-14T01:17:39;17.70;37.40
21807;DHT22;11065;50.786;7.840;2023-06-14T01:20:12;17.70;37.50
21807;DHT22;11065;50.786;7.840;2023-06-14T01:22:52;17.60;37.60
21807;DHT22;11065;50.786;7.840;2023-06-14T01:25:21;17.60;38.00
21807;DHT22;11065;50.786;7.840;2023-06-14T01:27:51;17.50;37.70
21807;DHT22;11065;50.786;7.840;2023-06-14T01:30:20;17.50;37.80
21807;DHT22;11065;50.786;7.840;2023-06-14T01:32:49;17.50;37.90
21807;DHT22;11065;50.786;7.840;2023-06-14T01:35:18;17.50;38.00
21807;DHT22;11065;50.786;7.840;2023-06-14T01:37:50;17.50;38.10
21807;DHT22;11065;50.786;7.840;2023-06-14T01:40:19;17.40;38.20
21807;DHT22;11065;50.786;7.840;2023-06-14T01:42:50;17.40;38.20
21807;DHT22;11065;50.786;7.840;2023-06-14T01:45:18;17.30;38.20
21807;DHT22;11065;50.786;7.840;2023-06-14T01:47:48;17.30;38.30
21807;DHT22;11065;50.786;7.840;2023-06-14T01:50:19;17.30;38.50
21807;DHT22;11065;50.786;7.840;2023-06-14T01:52:47;17.30;38.80
21807;DHT22;11065;50.786;7.840;2023-06-14T01:55:16;17.20;38.80
21807;DHT22;11065;50.786;7.840;2023-06-14T01:57:44;17.20;38.90
21807;DHT22;11065;50.786;7.840;2023-06-14T02:00:14;17.20;38.90
21807;DHT22;11065;50.786;7.840;2023-06-14T02:02:43;17.20;39.00
21807;DHT22;11065;50.786;7.840;2023-06-14T02:05:11;17.10;39.00
21807;DHT22;11065;50.786;7.840;2023-06-14T02:07:41;17.10;39.10
21807;DHT22;11065;50.786;7.840;2023-06-14T02:10:09;17.10;39.20
21807;DHT22;11065;50.786;7.840;2023-06-14T02:12:38;17.10;39.30
21807;DHT22;11065;50.786;7.840;2023-06-14T02:15:07;17.00;39.30
21807;DHT22;11065;50.786;7.840;2023-06-14T02:17:35;17.00;39.30
21807;DHT22;11065;50.786;7.840;2023-06-14T02:20:07;17.00;39.40
21807;DHT22;11065;50.786;7.840;2023-06-14T02:22:36;16.90;39.50
21807;DHT22;11065;50.786;7.840;2023-06-14T02:25:07;16.90;39.50
21807;DHT22;11065;50.786;7.840;2023-06-14T02:27:35;16.90;39.50
21807;DHT22;11065;50.786;7.840;2023-06-14T02:30:06;16.80;40.00
21807;DHT22;11065;50.786;7.840;2023-06-14T02:32:34;16.80;39.70
21807;DHT22;11065;50.786;7.840;2023-06-14T02:35:05;16.80;39.70
21807;DHT22;11065;50.786;7.840;2023-06-14T02:37:35;16.70;39.80
21807;DHT22;11065;50.786;7.840;2023-06-14T02:40:04;16.70;39.80
21807;DHT22;11065;50.786;7.840;2023-06-14T02:42:32;16.70;39.90
21807;DHT22;11065;50.786;7.840;2023-06-14T02:45:00;16.70;39.90
21807;DHT22;11065;50.786;7.840;2023-06-14T02:47:31;16.60;39.90
21807;DHT22;11065;50.786;7.840;2023-06-14T02:49:59;16.60;40.00
21807;DHT22;11065;50.786;7.840;2023-06-14T02:52:27;16.60;40.10
21807;DHT22;11065;50.786;7.840;2023-06-14T02:54:55;16.60;40.10
21807;DHT22;11065;50.786;7.840;2023-06-14T02:57:23;16.50;40.10
21807;DHT22;11065;50.786;7.840;2023-06-14T02:59:51;16.50;40.20
21807;DHT22;11065;50.786;7.840;2023-06-14T03:02:19;16.50;40.20
21807;DHT22;11065;50.786;7.840;2023-06-14T03:04:49;16.40;40.30
21807;DHT22;11065;50.786;7.840;2023-06-14T03:07:19;16.40;40.40
21807;DHT22;11065;50.786;7.840;2023-06-14T03:09:50;16.40;40.40
21807;DHT22;11065;50.786;7.840;2023-06-14T03:12:19;16.40;40.40
21807;DHT22;11065;50.786;7.840;2023-06-14T03:14:48;16.30;40.40
21807;DHT22;11065;50.786;7.840;2023-06-14T03:17:20;16.30;40.50
21807;DHT22;11065;50.786;7.840;2023-06-14T03:19:50;16.30;40.50
21807;DHT22;11065;50.786;7.840;2023-06-14T03:22:18;16.30;40.60
21807;DHT22;11065;50.786;7.840;2023-06-14T03:24:46;16.20;40.60
21807;DHT22;11065;50.786;7.840;2023-06-14T03:27:14;16.30;40.70
21807;DHT22;11065;50.786;7.840;2023-06-14T03:29:45;16.20;40.70
21807;DHT22;11065;50.786;7.840;2023-06-14T03:32:13;16.10;40.70
21807;DHT22;11065;50.786;7.840;2023-06-14T03:34:43;16.10;40.80
21807;DHT22;11065;50.786;7.840;2023-06-14T03:37:20;16.10;40.90
21807;DHT22;11065;50.786;7.840;2023-06-14T03:39:48;16.10;40.90
21807;DHT22;11065;50.786;7.840;2023-06-14T03:42:20;16.10;41.00
21807;DHT22;11065;50.786;7.840;2023-06-14T03:44:48;16.00;40.90
21807;DHT22;11065;50.786;7.840;2023-06-14T03:47:19;16.10;41.10
21807;DHT22;11065;50.786;7.840;2023-06-14T03:49:47;16.10;41.20
21807;DHT22;11065;50.786;7.840;2023-06-14T03:52:15;16.00;41.20
21807;DHT22;11065;50.786;7.840;2023-06-14T03:54:46;16.00;41.30
21807;DHT22;11065;50.786;7.840;2023-06-14T03:57:19;16.00;41.40
21807;DHT22;11065;50.786;7.840;2023-06-14T03:59:48;16.00;41.40
21807;DHT22;11065;50.786;7.840;2023-06-14T04:02:16;16.00;41.40
21807;DHT22;11065;50.786;7.840;2023-06-14T04:04:45;15.90;41.40
21807;DHT22;11065;50.786;7.840;2023-06-14T04:07:13;15.90;41.50
21807;DHT22;11065;50.786;7.840;2023-06-14T04:09:42;15.90;41.60
21807;DHT22;11065;50.786;7.840;2023-06-14T04:12:12;15.90;41.60
21807;DHT22;11065;50.786;7.840;2023-06-14T04:14:40;15.90;41.60
21807;DHT22;11065;50.786;7.840;2023-06-14T04:17:10;15.90;41.70
21807;DHT22;11065;50.786;7.840;2023-06-14T04:19:39;15.90;41.80
21807;DHT22;11065;50.786;7.840;2023-06-14T04:22:07;15.90;41.90
21807;DHT22;11065;50.786;7.840;2023-06-14T04:24:38;15.90;42.00
21807;DHT22;11065;50.786;7.840;2023-06-14T04:27:06;15.90;42.00
21807;DHT22;11065;50.786;7.840;2023-06-14T04:29:37;16.00;42.60
21807;DHT22;11065;50.786;7.840;2023-06-14T04:32:09;15.90;42.10
21807;DHT22;11065;50.786;7.840;2023-06-14T04:34:40;15.90;42.10
21807;DHT22;11065;50.786;7.840;2023-06-14T04:37:10;15.90;42.30
21807;DHT22;11065;50.786;7.840;2023-06-14T04:39:41;15.90;42.30
21807;DHT22;11065;50.786;7.840;2023-06-14T04:42:09;16.00;42.30
21807;DHT22;11065;50.786;7.840;2023-06-14T04:44:40;16.00;42.30
21807;DHT22;11065;50.786;7.840;2023-06-14T04:47:08;16.00;42.30
21807;DHT22;11065;50.786;7.840;2023-06-14T04:49:36;16.00;42.50
21807;DHT22;11065;50.786;7.840;2023-06-14T04:52:05;16.00;42.40
21807;DHT22;11065;50.786;7.840;2023-06-14T04:54:35;16.00;42.40
21807;DHT22;11065;50.786;7.840;2023-06-14T04:57:08;16.00;42.40
21807;DHT22;11065;50.786;7.840;2023-06-14T04:59:43;16.00;42.40
21807;DHT22;11065;50.786;7.840;2023-06-14T05:02:11;16.00;42.50
21807;DHT22;11065;50.786;7.840;2023-06-14T05:04:39;16.10;42.50
21807;DHT22;11065;50.786;7.840;2023-06-14T05:07:08;16.10;42.60
21807;DHT22;11065;50.786;7.840;2023-06-14T05:09:37;16.10;42.60
21807;DHT22;11065;50.786;7.840;2023-06-14T05:12:06;16.20;42.70
21807;DHT22;11065;50.786;7.840;2023-06-14T05:14:35;16.20;42.80
21807;DHT22;11065;50.786;7.840;2023-06-14T05:17:06;16.20;42.70
21807;DHT22;11065;50.786;7.840;2023-06-14T05:19:34;16.20;42.80
21807;DHT22;11065;50.786;7.840;2023-06-14T05:22:04;16.30;42.90
21807;DHT22;11065;50.786;7.840;2023-06-14T05:24:32;16.30;42.90
21807;DHT22;11065;50.786;7.840;2023-06-14T05:27:00;16.40;43.00
21807;DHT22;11065;50.786;7.840;2023-06-14T05:29:28;16.40;43.00
21807;DHT22;11065;50.786;7.840;2023-06-14T05:31:56;16.40;43.00
21807;DHT22;11065;50.786;7.840;2023-06-14T05:34:26;16.50;43.10
21807;DHT22;11065;50.786;7.840;2023-06-14T05:36:54;16.50;43.20
21807;DHT22;11065;50.786;7.840;2023-06-14T05:39:22;16.60;43.30
21807;DHT22;11065;50.786;7.840;2023-06-14T05:41:51;16.60;43.30
21807;DHT22;11065;50.786;7.840;2023-06-14T05:44:19;16.70;43.30
21807;DHT22;11065;50.786;7.840;2023-06-14T05:46:47;16.80;43.20
21807;DHT22;11065;50.786;7.840;2023-06-14T05:49:15;16.80;43.30
21807;DHT22;11065;50.786;7.840;2023-06-14T05:51:44;16.90;43.40
21807;DHT22;11065;50.786;7.840;2023-06-14T05:54:12;17.00;43.40
21807;DHT22;11065;50.786;7.840;2023-06-14T05:56:40;17.10;43.90
21807;DHT22;11065;50.786;7.840;2023-06-14T05:59:08;17.10;43.50
21807;DHT22;11065;50.786;7.840;2023-06-14T06:01:36;17.20;43.50
21807;DHT22;11065;50.786;7.840;2023-06-14T06:04:07;17.30;43.50
21807;DHT22;11065;50.786;7.840;2023-06-14T06:06:35;17.30;43.30
21807;DHT22;11065;50.786;7.840;2023-06-14T06:09:04;17.50;43.30
21807;DHT22;11065;50.786;7.840;2023-06-14T06:11:33;17.50;43.20
21807;DHT22;11065;50.786;7.840;2023-06-14T06:14:18;17.60;43.20
21807;DHT22;11065;50.786;7.840;2023-06-14T06:16:46;17.70;43.20
21807;DHT22;11065;50.786;7.840;2023-06-14T06:19:14;17.80;43.20
21807;DHT22;11065;50.786;7.840;2023-06-14T06:21:42;17.90;43.20
21807;DHT22;11065;50.786;7.840;2023-06-14T06:24:11;18.10;43.10
21807;DHT22;11065;50.786;7.840;2023-06-14T06:26:40;18.20;43.10
21807;DHT22;11065;50.786;7.840;2023-06-14T06:29:08;18.30;43.00
21807;DHT22;11065;50.786;7.840;2023-06-14T06:31:36;18.40;43.00
21807;DHT22;11065;50.786;7.840;2023-06-14T06:34:04;18.50;42.90
21807;DHT22;11065;50.786;7.840;2023-06-14T06:36:32;18.60;42.70
21807;DHT22;11065;50.786;7.840;2023-06-14T06:39:00;18.70;42.60
21807;DHT22;11065;50.786;7.840;2023-06-14T06:41:29;18.90;42.40
21807;DHT22;11065;50.786;7.840;2023-06-14T06:43:58;19.00;42.40
21807;DHT22;11065;50.786;7.840;2023-06-14T06:46:28;19.10;42.20
21807;DHT22;11065;50.786;7.840;2023-06-14T06:48:56;19.20;42.00
21807;DHT22;11065;50.786;7.840;2023-06-14T06:51:24;19.20;41.90
21807;DHT22;11065;50.786;7.840;2023-06-14T06:53:53;19.30;41.80
21807;DHT22;11065;50.786;7.840;2023-06-14T06:56:21;19.40;41.70
21807;DHT22;11065;50.786;7.840;2023-06-14T06:58:51;19.50;41.60
21807;DHT22;11065;50.786;7.840;2023-06-14T08:12:07;21.30;40.40
21807;DHT22;11065;50.786;7.840;2023-06-14T08:14:37;21.50;40.10
21807;DHT22;11065;50.786;7.840;2023-06-14T08:17:05;21.60;40.20
21807;DHT22;11065;50.786;7.840;2023-06-14T08:19:33;21.70;40.10
21807;DHT22;11065;50.786;7.840;2023-06-14T08:22:01;21.80;40.00
21807;DHT22;11065;50.786;7.840;2023-06-14T08:24:30;21.90;40.00
21807;DHT22;11065;50.786;7.840;2023-06-14T08:26:59;22.00;39.90
21807;DHT22;11065;50.786;7.840;2023-06-14T08:29:29;22.10;39.80
21807;DHT22;11065;50.786;7.840;2023-06-14T08:31:57;22.20;39.80
21807;DHT22;11065;50.786;7.840;2023-06-14T08:34:25;22.40;39.70
21807;DHT22;11065;50.786;7.840;2023-06-14T08:36:53;22.50;39.40
21807;DHT22;11065;50.786;7.840;2023-06-14T08:39:22;22.50;39.20
21807;DHT22;11065;50.786;7.840;2023-06-14T08:41:52;22.70;39.10
21807;DHT22;11065;50.786;7.840;2023-06-14T08:44:20;22.80;38.90
21807;DHT22;11065;50.786;7.840;2023-06-14T08:46:50;22.90;38.70
21807;DHT22;11065;50.786;7.840;2023-06-14T08:49:20;22.90;38.60
21807;DHT22;11065;50.786;7.840;2023-06-14T08:51:55;23.10;38.70
21807;DHT22;11065;50.786;7.840;2023-06-14T08:54:25;23.10;38.50
21807;DHT22;11065;50.786;7.840;2023-06-14T08:56:57;23.20;38.60
21807;DHT22;11065;50.786;7.840;2023-06-14T08:59:26;23.20;38.40
21807;DHT22;11065;50.786;7.840;2023-06-14T09:01:56;23.30;38.10
21807;DHT22;11065;50.786;7.840;2023-06-14T09:04:38;23.40;38.00
21807;DHT22;11065;50.786;7.840;2023-06-14T09:07:06;23.50;38.20
21807;DHT22;11065;50.786;7.840;2023-06-14T09:09:38;23.60;38.10
21807;DHT22;11065;50.786;7.840;2023-06-14T09:12:13;23.70;37.70
21807;DHT22;11065;50.786;7.840;2023-06-14T09:14:41;23.80;37.90
21807;DHT22;11065;50.786;7.840;2023-06-14T09:17:13;24.00;37.90
21807;DHT22;11065;50.786;7.840;2023-06-14T09:19:41;24.10;37.70
21807;DHT22;11065;50.786;7.840;2023-06-14T09:22:11;24.30;37.80
21807;DHT22;11065;50.786;7.840;2023-06-14T09:24:41;24.50;37.50
21807;DHT22;11065;50.786;7.840;2023-06-14T09:27:15;24.70;37.40
21807;DHT22;11065;50.786;7.840;2023-06-14T09:29:43;25.00;37.80
21807;DHT22;11065;50.786;7.840;2023-06-14T09:32:13;25.30;37.50
21807;DHT22;11065;50.786;7.840;2023-06-14T09:34:41;25.70;37.30
21807;DHT22;11065;50.786;7.840;2023-06-14T09:37:09;26.10;37.30
21807;DHT22;11065;50.786;7.840;2023-06-14T09:39:49;26.50;37.40
21807;DHT22;11065;50.786;7.840;2023-06-14T09:42:18;27.00;36.80
21807;DHT22;11065;50.786;7.840;2023-06-14T09:44:47;27.50;37.50
21807;DHT22;11065;50.786;7.840;2023-06-14T09:47:17;28.10;37.40
21807;DHT22;11065;50.786;7.840;2023-06-14T09:49:46;28.70;37.90
21807;DHT22;11065;50.786;7.840;2023-06-14T09:52:15;29.30;37.20
21807;DHT22;11065;50.786;7.840;2023-06-14T09:54:46;30.00;37.00
21807;DHT22;11065;50.786;7.840;2023-06-14T09:57:16;30.60;36.70
21807;DHT22;11065;50.786;7.840;2023-06-14T09:59:45;31.30;36.10
21807;DHT22;11065;50.786;7.840;2023-06-14T10:02:24;31.90;35.90
21807;DHT22;11065;50.786;7.840;2023-06-14T10:04:58;32.50;34.70
21807;DHT22;11065;50.786;7.840;2023-06-14T10:07:30;33.00;34.40
21807;DHT22;11065;50.786;7.840;2023-06-14T10:09:59;33.60;34.30
21807;DHT22;11065;50.786;7.840;2023-06-14T10:12:27;34.10;33.90
21807;DHT22;11065;50.786;7.840;2023-06-14T10:14:56;34.50;33.30
21807;DHT22;11065;50.786;7.840;2023-06-14T10:17:33;34.90;32.80
21807;DHT22;11065;50.786;7.840;2023-06-14T10:20:21;35.40;31.40
21807;DHT22;11065;50.786;7.840;2023-06-14T10:23:00;35.80;30.80
21807;DHT22;11065;50.786;7.840;2023-06-14T10:25:30;36.20;30.50
21807;DHT22;11065;50.786;7.840;2023-06-14T10:28:18;36.40;30.70
21807;DHT22;11065;50.786;7.840;2023-06-14T10:31:09;36.70;29.80
21807;DHT22;11065;50.786;7.840;2023-06-14T10:33:49;37.00;29.80
21807;DHT22;11065;50.786;7.840;2023-06-14T10:36:26;37.30;29.30
21807;DHT22;11065;50.786;7.840;2023-06-14T10:38:58;37.50;29.20
21807;DHT22;11065;50.786;7.840;2023-06-14T10:41:27;37.70;29.30
21807;DHT22;11065;50.786;7.840;2023-06-14T10:44:39;37.90;29.30
21807;DHT22;11065;50.786;7.840;2023-06-14T10:47:09;38.20;28.90
21807;DHT22;11065;50.786;7.840;2023-06-14T10:49:41;38.40;28.90
21807;DHT22;11065;50.786;7.840;2023-06-14T10:52:11;38.60;28.30
21807;DHT22;11065;50.786;7.840;2023-06-14T10:55:07;38.80;28.20
21807;DHT22;11065;50.786;7.840;2023-06-14T10:57:40;38.90;27.40
21807;DHT22;11065;50.786;7.840;2023-06-14T11:00:13;38.70;27.30
21807;DHT22;11065;50.786;7.840;2023-06-14T11:03:16;38.50;27.30
21807;DHT22;11065;50.786;7.840;2023-06-14T11:05:52;38.40;26.80
21807;DHT22;11065;50.786;7.840;2023-06-14T11:09:06;38.30;27.20
21807;DHT22;11065;50.786;7.840;2023-06-14T11:11:42;38.40;27.00
21807;DHT22;11065;50.786;7.840;2023-06-14T11:14:10;38.40;27.00
21807;DHT22;11065;50.786;7.840;2023-06-14T11:16:38;38.60;27.20
21807;DHT22;11065;50.786;7.840;2023-06-14T11:19:08;38.70;27.10
21807;DHT22;11065;50.786;7.840;2023-06-14T11:21:40;38.80;26.90
21807;DHT22;11065;50.786;7.840;2023-06-14T11:24:10;38.90;26.60
21807;DHT22;11065;50.786;7.840;2023-06-14T11:26:39;38.90;26.30
21807;DHT22;11065;50.786;7.840;2023-06-14T11:29:08;38.80;26.30
21807;DHT22;11065;50.786;7.840;2023-06-14T11:31:36;38.60;26.00
21807;DHT22;11065;50.786;7.840;2023-06-14T11:34:04;38.40;26.10
21807;DHT22;11065;50.786;7.840;2023-06-14T11:36:34;38.30;26.10
21807;DHT22;11065;50.786;7.840;2023-06-14T11:39:04;38.20;26.00
21807;DHT22;11065;50.786;7.840;2023-06-14T11:41:36;38.20;26.20
21807;DHT22;11065;50.786;7.840;2023-06-14T11:44:04;38.20;26.10
21807;DHT22;11065;50.786;7.840;2023-06-14T11:46:32;38.20;26.10
21807;DHT22;11065;50.786;7.840;2023-06-14T11:49:01;38.20;25.90
21807;DHT22;11065;50.786;7.840;2023-06-14T11:51:31;38.30;26.00
21807;DHT22;11065;50.786;7.840;2023-06-14T11:54:01;38.40;25.80
21807;DHT22;11065;50.786;7.840;2023-06-14T11:56:30;38.40;25.60
21807;DHT22;11065;50.786;7.840;2023-06-14T11:58:59;38.40;25.50
21807;DHT22;11065;50.786;7.840;2023-06-14T12:01:29;38.40;25.40
21807;DHT22;11065;50.786;7.840;2023-06-14T12:03:59;38.30;25.30
21807;DHT22;11065;50.786;7.840;2023-06-14T12:06:29;38.20;25.20
21807;DHT22;11065;50.786;7.840;2023-06-14T12:09:03;38.20;25.30
21807;DHT22;11065;50.786;7.840;2023-06-14T12:11:34;38.10;25.20
21807;DHT22;11065;50.786;7.840;2023-06-14T12:14:04;38.10;25.40
21807;DHT22;11065;50.786;7.840;2023-06-14T12:16:33;38.00;25.10
21807;DHT22;11065;50.786;7.840;2023-06-14T12:19:08;38.00;25.20
21807;DHT22;11065;50.786;7.840;2023-06-14T12:21:38;37.90;24.90
21807;DHT22;11065;50.786;7.840;2023-06-14T12:24:08;37.80;25.20
21807;DHT22;11065;50.786;7.840;2023-06-14T12:26:39;37.90;25.20
21807;DHT22;11065;50.786;7.840;2023-06-14T12:29:08;37.90;25.20
21807;DHT22;11065;50.786;7.840;2023-06-14T12:31:37;37.90;25.10
21807;DHT22;11065;50.786;7.840;2023-06-14T12:34:05;37.80;25.00
21807;DHT22;11065;50.786;7.840;2023-06-14T12:36:33;37.90;25.00
21807;DHT22;11065;50.786;7.840;2023-06-14T12:39:08;37.70;24.90
21807;DHT22;11065;50.786;7.840;2023-06-14T12:41:36;37.60;24.80
21807;DHT22;11065;50.786;7.840;2023-06-14T12:44:04;37.50;24.60
21807;DHT22;11065;50.786;7.840;2023-06-14T12:46:33;37.20;24.50
21807;DHT22;11065;50.786;7.840;2023-06-14T12:49:02;36.80;24.50
21807;DHT22;11065;50.786;7.840;2023-06-14T12:51:30;36.60;24.60
21807;DHT22;11065;50.786;7.840;2023-06-14T12:53:58;36.40;24.70
21807;DHT22;11065;50.786;7.840;2023-06-14T12:56:27;36.30;24.80
21807;DHT22;11065;50.786;7.840;2023-06-14T12:58:56;36.30;24.90
21807;DHT22;11065;50.786;7.840;2023-06-14T13:01:24;36.40;25.00
21807;DHT22;11065;50.786;7.840;2023-06-14T13:03:52;36.20;24.90
21807;DHT22;11065;50.786;7.840;2023-06-14T13:06:21;36.30;24.90
21807;DHT22;11065;50.786;7.840;2023-06-14T13:08:49;36.30;24.90
21807;DHT22;11065;50.786;7.840;2023-06-14T13:11:17;36.30;24.90
21807;DHT22;11065;50.786;7.840;2023-06-14T13:13:47;36.30;24.90
21807;DHT22;11065;50.786;7.840;2023-06-14T13:16:15;36.20;24.80
21807;DHT22;11065;50.786;7.840;2023-06-14T13:18:43;36.10;24.70
21807;DHT22;11065;50.786;7.840;2023-06-14T13:21:11;35.90;24.70
21807;DHT22;11065;50.786;7.840;2023-06-14T13:23:39;35.80;24.80
21807;DHT22;11065;50.786;7.840;2023-06-14T13:26:07;35.90;24.80
21807;DHT22;11065;50.786;7.840;2023-06-14T13:28:36;35.80;24.80
21807;DHT22;11065;50.786;7.840;2023-06-14T13:31:05;35.80;24.80
21807;DHT22;11065;50.786;7.840;2023-06-14T13:33:34;35.80;24.70
21807;DHT22;11065;50.786;7.840;2023-06-14T13:36:02;35.70;24.70
21807;DHT22;11065;50.786;7.840;2023-06-14T13:38:30;35.60;24.60
21807;DHT22;11065;50.786;7.840;2023-06-14T13:40:58;35.30;24.50
21807;DHT22;11065;50.786;7.840;2023-06-14T13:43:26;35.10;24.40
21807;DHT22;11065;50.786;7.840;2023-06-14T13:45:54;34.80;24.60
21807;DHT22;11065;50.786;7.840;2023-06-14T13:48:23;34.70;24.70
21807;DHT22;11065;50.786;7.840;2023-06-14T13:50:51;34.60;24.70
21807;DHT22;11065;50.786;7.840;2023-06-14T13:53:19;34.60;24.80
21807;DHT22;11065;50.786;7.840;2023-06-14T13:55:47;34.60;24.80
21807;DHT22;11065;50.786;7.840;2023-06-14T13:58:15;34.50;24.80
21807;DHT22;11065;50.786;7.840;2023-06-14T14:00:43;34.50;24.80
21807;DHT22;11065;50.786;7.840;2023-06-14T14:03:11;34.50;24.80
21807;DHT22;11065;50.786;7.840;2023-06-14T14:05:40;34.50;24.90
21807;DHT22;11065;50.786;7.840;2023-06-14T14:08:08;34.60;25.00
21807;DHT22;11065;50.786;7.840;2023-06-14T14:10:37;34.70;25.00
21807;DHT22;11065;50.786;7.840;2023-06-14T14:13:05;34.70;25.00
21807;DHT22;11065;50.786;7.840;2023-06-14T14:15:33;34.80;25.00
21807;DHT22;11065;50.786;7.840;2023-06-14T14:18:01;35.00;25.10
21807;DHT22;11065;50.786;7.840;2023-06-14T14:20:30;34.90;24.90
21807;DHT22;11065;50.786;7.840;2023-06-14T14:23:00;34.80;24.80
21807;DHT22;11065;50.786;7.840;2023-06-14T14:25:28;34.80;24.80
21807;DHT22;11065;50.786;7.840;2023-06-14T14:27:56;34.80;25.30
21807;DHT22;11065;50.786;7.840;2023-06-14T14:30:24;34.80;24.90
21807;DHT22;11065;50.786;7.840;2023-06-14T14:32:53;34.90;25.00
21807;DHT22;11065;50.786;7.840;2023-06-14T14:35:21;34.90;25.10
21807;DHT22;11065;50.786;7.840;2023-06-14T14:37:52;34.90;25.10
21807;DHT22;11065;50.786;7.840;2023-06-14T14:40:21;35.00;25.00
21807;DHT22;11065;50.786;7.840;2023-06-14T14:42:50;35.00;24.90
21807;DHT22;11065;50.786;7.840;2023-06-14T14:45:18;34.80;24.60
21807;DHT22;11065;50.786;7.840;2023-06-14T14:47:46;34.70;24.60
21807;DHT22;11065;50.786;7.840;2023-06-14T14:50:14;34.40;24.50
21807;DHT22;11065;50.786;7.840;2023-06-14T14:52:43;34.30;24.60
21807;DHT22;11065;50.786;7.840;2023-06-14T14:55:12;34.20;24.80
21807;DHT22;11065;50.786;7.840;2023-06-14T14:57:42;34.10;24.70
21807;DHT22;11065;50.786;7.840;2023-06-14T15:00:11;34.10;24.80
21807;DHT22;11065;50.786;7.840;2023-06-14T15:02:40;34.00;24.70
21807;DHT22;11065;50.786;7.840;2023-06-14T15:05:08;33.90;24.60
21807;DHT22;11065;50.786;7.840;2023-06-14T15:07:36;33.70;24.50
21807;DHT22;11065;50.786;7.840;2023-06-14T15:10:07;33.50;24.50
21807;DHT22;11065;50.786;7.840;2023-06-14T15:12:35;33.20;24.40
21807;DHT22;11065;50.786;7.840;2023-06-14T15:15:06;33.00;24.50
21807;DHT22;11065;50.786;7.840;2023-06-14T15:17:35;32.80;24.60
21807;DHT22;11065;50.786;7.840;2023-06-14T15:20:05;32.80;24.80
21807;DHT22;11065;50.786;7.840;2023-06-14T15:22:33;32.80;24.90
21807;DHT22;11065;50.786;7.840;2023-06-14T15:25:01;32.90;25.00
21807;DHT22;11065;50.786;7.840;2023-06-14T15:27:30;32.90;25.10
21807;DHT22;11065;50.786;7.840;2023-06-14T15:29:58;32.90;25.00
21807;DHT22;11065;50.786;7.840;2023-06-14T15:32:27;32.80;24.90
21807;DHT22;11065;50.786;7.840;2023-06-14T15:34:55;32.80;25.00
21807;DHT22;11065;50.786;7.840;2023-06-14T15:37:23;32.70;25.10
21807;DHT22;11065;50.786;7.840;2023-06-14T15:39:51;32.70;25.10
21807;DHT22;11065;50.786;7.840;2023-06-14T15:42:19;32.70;25.10
21807;DHT22;11065;50.786;7.840;2023-06-14T15:44:48;32.70;25.20
21807;DHT22;11065;50.786;7.840;2023-06-14T15:47:15;32.70;25.10
21807;DHT22;11065;50.786;7.840;2023-06-14T15:49:45;32.60;24.90
21807;DHT22;11065;50.786;7.840;2023-06-14T15:52:13;32.50;24.90
21807;DHT22;11065;50.786;7.840;2023-06-14T15:54:41;32.20;24.80
21807;DHT22;11065;50.786;7.840;2023-06-14T15:57:09;32.00;24.80
21807;DHT22;11065;50.786;7.840;2023-06-14T15:59:38;31.80;24.90
21807;DHT22;11065;50.786;7.840;2023-06-14T16:02:06;31.70;25.10
21807;DHT22;11065;50.786;7.840;2023-06-14T16:04:34;31.70;25.20
21807;DHT22;11065;50.786;7.840;2023-06-14T16:07:03;31.60;25.10
21807;DHT22;11065;50.786;7.840;2023-06-14T16:09:31;31.50;25.10
21807;DHT22;11065;50.786;7.840;2023-06-14T16:12:00;31.30;25.10
21807;DHT22;11065;50.786;7.840;2023-06-14T16:14:28;31.20;25.20
21807;DHT22;11065;50.786;7.840;2023-06-14T16:16:56;31.20;25.40
21807;DHT22;11065;50.786;7.840;2023-06-14T16:19:25;31.20;25.50
21807;DHT22;11065;50.786;7.840;2023-06-14T16:21:53;31.10;25.50
21807;DHT22;11065;50.786;7.840;2023-06-14T16:24:23;31.10;25.40
21807;DHT22;11065;50.786;7.840;2023-06-14T16:26:51;31.00;25.40
21807;DHT22;11065;50.786;7.840;2023-06-14T16:29:20;30.90;25.30
21807;DHT22;11065;50.786;7.840;2023-06-14T16:31:48;30.80;25.30
21807;DHT22;11065;50.786;7.840;2023-06-14T16:34:17;30.70;25.40
21807;DHT22;11065;50.786;7.840;2023-06-14T16:36:45;30.70;25.50
21807;DHT22;11065;50.786;7.840;2023-06-14T16:39:13;30.70;25.60
21807;DHT22;11065;50.786;7.840;2023-06-14T16:41:42;30.70;25.70
21807;DHT22;11065;50.786;7.840;2023-06-14T16:44:10;30.80;25.70
21807;DHT22;11065;50.786;7.840;2023-06-14T16:46:40;30.80;25.60
21807;DHT22;11065;50.786;7.840;2023-06-14T16:49:08;30.80;25.50
21807;DHT22;11065;50.786;7.840;2023-06-14T16:51:36;30.80;25.50
21807;DHT22;11065;50.786;7.840;2023-06-14T16:54:04;30.70;25.40
21807;DHT22;11065;50.786;7.840;2023-06-14T16:56:32;30.50;25.30
21807;DHT22;11065;50.786;7.840;2023-06-14T16:59:01;30.40;25.30